Time;durP1;ratioP1;P1;durP2;ratioP2;P2;SDS_P1;SDS_P2;PMS_P1;PMS_P2;Temp;Humidity;BMP_temperature;BMP_pressure;BME280_temperature;BME280_humidity;BME280_pressure;Samples;Min_cycle;Max_cycle;Signal;HPM_P1;HPM_P2
2022/02/15 00:01:04;;;;;;;7.93;4.50;;;5.30;99.90;;;;;;6216163;23;20145;-66
2022/02/15 00:03:30;;;;;;;5.63;4.20;;;5.20;99.90;;;;;;6216687;23;20163;-67
2022/02/15 00:05:56;;;;;;;6.35;4.35;;;5.30;99.90;;;;;;6216243;23;20216;-67
2022/02/15 00:08:22;;;;;;;5.22;4.25;;;5.20;99.90;;;;;;6216444;23;20148;-67
2022/02/15 00:10:47;;;;;;;5.65;4.35;;;5.20;99.90;;;;;;6216175;23;20604;-67
2022/02/15 00:13:14;;;;;;;5.90;4.10;;;5.30;99.90;;;;;;6216448;23;20161;-67
2022/02/15 00:15:40;;;;;;;5.45;4.03;;;5.30;99.90;;;;;;6215093;23;20152;-67
2022/02/15 00:18:06;;;;;;;7.80;4.50;;;5.20;99.90;;;;;;6216286;23;20167;-67
2022/02/15 00:20:32;;;;;;;6.15;4.00;;;5.20;99.90;;;;;;6216370;23;20448;-67
2022/02/15 00:22:57;;;;;;;6.20;3.97;;;5.20;99.90;;;;;;6218989;23;20148;-67
2022/02/15 00:25:23;;;;;;;6.65;4.00;;;5.20;99.90;;;;;;6215006;23;20137;-67
2022/02/15 00:27:48;;;;;;;6.35;3.83;;;5.20;99.90;;;;;;6215912;23;20211;-67
2022/02/15 00:30:14;;;;;;;7.72;3.78;;;5.20;99.90;;;;;;6216199;23;20450;-67
2022/02/15 00:32:41;;;;;;;6.65;4.00;;;5.30;99.90;;;;;;6214720;23;20267;-67
2022/02/15 00:35:07;;;;;;;8.10;3.80;;;5.30;99.90;;;;;;6215321;23;20227;-66
2022/02/15 00:37:33;;;;;;;8.00;3.70;;;5.30;99.90;;;;;;6216234;23;20153;-66
2022/02/15 00:39:58;;;;;;;6.20;3.92;;;5.30;99.90;;;;;;6216754;23;20149;-67
2022/02/15 00:42:24;;;;;;;4.88;3.83;;;5.30;99.90;;;;;;6216331;23;20145;-67
2022/02/15 00:44:49;;;;;;;5.10;3.60;;;5.30;99.90;;;;;;6215558;23;20153;-67
2022/02/15 00:47:16;;;;;;;6.10;3.72;;;5.30;99.90;;;;;;6215695;23;20145;-67
2022/02/15 00:49:42;;;;;;;5.47;3.83;;;5.30;99.90;;;;;;6215503;23;20156;-67
2022/02/15 00:52:07;;;;;;;4.00;3.10;;;5.30;99.90;;;;;;6217023;23;20149;-67
2022/02/15 00:54:33;;;;;;;6.28;3.85;;;5.40;99.90;;;;;;6215423;23;20152;-67
2022/02/15 00:56:58;;;;;;;4.55;3.22;;;5.40;99.90;;;;;;6217084;23;20156;-67
2022/02/15 00:59:24;;;;;;;6.10;3.78;;;5.40;99.90;;;;;;6218286;23;20150;-67
2022/02/15 01:01:49;;;;;;;7.32;3.58;;;5.40;99.90;;;;;;6217993;23;20145;-67
2022/02/15 01:04:15;;;;;;;7.03;3.45;;;5.50;99.90;;;;;;6218486;23;20211;-67
2022/02/15 01:06:40;;;;;;;7.35;3.50;;;5.50;99.90;;;;;;6217831;23;20207;-67
2022/02/15 01:09:07;;;;;;;5.82;3.20;;;5.50;99.90;;;;;;6217907;23;20438;-67
2022/02/15 01:11:32;;;;;;;4.47;3.20;;;5.60;99.90;;;;;;6218026;23;20392;-67
2022/02/15 01:13:58;;;;;;;3.70;3.17;;;5.60;99.90;;;;;;6216488;23;20219;-68
2022/02/15 01:16:23;;;;;;;4.05;3.38;;;5.60;99.90;;;;;;6217741;23;20187;-67
2022/02/15 01:18:49;;;;;;;4.30;3.10;;;5.60;99.90;;;;;;6217900;23;20141;-67
2022/02/15 01:21:14;;;;;;;5.13;3.17;;;5.70;99.90;;;;;;6218999;23;20549;-67
2022/02/15 01:23:40;;;;;;;5.45;2.90;;;5.70;99.90;;;;;;6223061;23;20171;-67
2022/02/15 01:26:05;;;;;;;5.70;3.17;;;5.70;99.90;;;;;;6224075;23;20155;-67
2022/02/15 01:28:34;;;;;;;7.15;3.00;;;5.80;99.90;;;;;;6224270;23;20148;-67
2022/02/15 01:31:00;;;;;;;4.50;2.70;;;5.80;99.90;;;;;;6224117;23;20366;-67
2022/02/15 01:33:26;;;;;;;4.25;2.53;;;5.80;99.90;;;;;;6223703;23;20221;-66
2022/02/15 01:35:51;;;;;;;3.78;2.70;;;5.90;99.90;;;;;;6224216;23;20144;-67
2022/02/15 01:38:17;;;;;;;5.22;2.53;;;5.90;99.90;;;;;;6224077;23;20156;-67
2022/02/15 01:40:42;;;;;;;4.45;2.70;;;5.90;99.90;;;;;;6224257;23;20153;-67
2022/02/15 01:43:08;;;;;;;3.30;2.22;;;6.00;99.90;;;;;;6223630;23;20232;-67
2022/02/15 01:45:33;;;;;;;6.20;2.55;;;6.00;99.90;;;;;;6222740;23;20155;-67
2022/02/15 01:47:59;;;;;;;4.60;2.38;;;6.00;99.90;;;;;;6224347;23;20167;-67
2022/02/15 01:50:24;;;;;;;4.75;2.72;;;5.90;99.90;;;;;;6224809;23;20228;-67
2022/02/15 01:52:50;;;;;;;5.30;2.25;;;5.90;99.90;;;;;;6224365;23;20219;-67
2022/02/15 01:55:16;;;;;;;6.20;2.60;;;6.00;99.90;;;;;;6224101;23;20153;-67
2022/02/15 01:57:42;;;;;;;3.92;2.53;;;6.00;99.90;;;;;;6224575;23;20161;-66
2022/02/15 02:00:10;;;;;;;7.72;2.47;;;5.90;99.90;;;;;;6225378;23;20167;-67
2022/02/15 02:02:36;;;;;;;3.80;2.20;;;5.90;99.90;;;;;;6223998;23;20149;-67
2022/02/15 02:07:46;;;;;;;4.40;2.10;;;5.80;99.90;;;;;;6223656;23;20160;-66
2022/02/15 02:10:11;;;;;;;5.78;2.25;;;5.80;99.90;;;;;;6223966;23;20149;-67
2022/02/15 02:12:37;;;;;;;2.67;1.95;;;5.70;99.90;;;;;;6223253;23;20366;-67
2022/02/15 02:15:08;;;;;;;3.88;1.90;;;5.70;99.90;;;;;;6223447;23;20155;-67
2022/02/15 02:17:35;;;;;;;8.02;2.35;;;5.70;99.90;;;;;;6222045;23;20147;-66
2022/02/15 02:20:00;;;;;;;5.97;2.60;;;5.60;99.90;;;;;;6222143;23;20145;-67
2022/02/15 02:22:28;;;;;;;3.83;2.40;;;5.60;99.90;;;;;;6225725;23;20222;-65
2022/02/15 02:24:55;;;;;;;5.25;2.20;;;5.70;99.90;;;;;;6225948;23;20259;-66
2022/02/15 02:27:23;;;;;;;6.38;2.17;;;5.70;99.90;;;;;;6226653;23;20545;-65
2022/02/15 02:29:54;;;;;;;5.82;2.10;;;5.80;99.90;;;;;;6226755;23;20217;-67
2022/02/15 02:32:20;;;;;;;6.50;1.90;;;5.80;99.90;;;;;;6226938;23;20246;-66
2022/02/15 02:34:45;;;;;;;6.55;2.15;;;5.90;99.90;;;;;;6227444;23;20191;-67
2022/02/15 02:37:14;;;;;;;3.83;1.98;;;5.90;99.90;;;;;;6226166;23;20212;-67
2022/02/15 02:39:44;;;;;;;2.72;1.80;;;5.90;99.90;;;;;;6225720;23;20136;-67
2022/02/15 02:42:10;;;;;;;4.80;1.98;;;5.90;99.90;;;;;;6225778;23;20145;-67
2022/02/15 02:44:36;;;;;;;3.53;2.10;;;6.00;99.90;;;;;;6224498;23;20144;-65
2022/02/15 02:47:01;;;;;;;5.50;2.35;;;6.00;99.90;;;;;;6225313;23;20191;-67
2022/02/15 02:49:27;;;;;;;3.35;1.98;;;6.00;99.90;;;;;;6225734;23;20264;-67
2022/02/15 02:51:52;;;;;;;5.13;2.13;;;6.10;99.90;;;;;;6224854;23;20141;-66
2022/02/15 02:54:18;;;;;;;2.80;1.70;;;6.10;99.90;;;;;;6220501;23;20142;-66
2022/02/15 02:56:43;;;;;;;4.45;2.22;;;6.20;99.90;;;;;;6220538;23;20171;-67
2022/02/15 02:59:09;;;;;;;5.60;2.00;;;6.30;99.90;;;;;;6219071;23;20616;-66
2022/02/15 03:01:34;;;;;;;3.85;2.00;;;6.40;99.90;;;;;;6217940;23;20145;-67
2022/02/15 03:04:00;;;;;;;5.65;2.28;;;6.50;99.90;;;;;;6218011;23;20145;-67
2022/02/15 03:06:26;;;;;;;5.18;2.30;;;6.60;99.90;;;;;;6224420;23;20168;-67
2022/02/15 03:08:52;;;;;;;4.47;2.17;;;6.70;99.90;;;;;;6226108;23;20141;-65
2022/02/15 03:11:17;;;;;;;4.18;2.17;;;6.70;99.90;;;;;;6227386;23;20160;-66
2022/02/15 03:13:43;;;;;;;6.38;2.38;;;6.80;99.90;;;;;;6227711;23;20168;-66
2022/02/15 03:16:08;;;;;;;5.35;2.60;;;6.90;99.90;;;;;;6226539;23;20138;-67
2022/02/15 03:18:34;;;;;;;3.25;2.50;;;6.90;99.90;;;;;;6221597;23;20595;-67
2022/02/15 03:20:59;;;;;;;5.30;2.60;;;7.00;99.90;;;;;;6223807;23;20192;-67
2022/02/15 03:23:25;;;;;;;4.35;2.65;;;7.10;99.90;;;;;;6224203;23;20220;-67
2022/02/15 03:25:50;;;;;;;5.03;2.38;;;7.20;99.90;;;;;;6220196;23;20141;-67
2022/02/15 03:28:16;;;;;;;3.35;2.42;;;7.20;99.90;;;;;;6219130;23;20202;-67
2022/02/15 03:30:42;;;;;;;6.45;2.67;;;7.30;99.90;;;;;;6218084;23;20216;-67
2022/02/15 03:33:07;;;;;;;5.15;2.78;;;7.30;99.90;;;;;;6218346;23;20490;-67
2022/02/15 03:35:33;;;;;;;4.13;2.40;;;7.40;99.90;;;;;;6217607;23;20141;-67
2022/02/15 03:37:58;;;;;;;7.85;2.97;;;7.40;99.90;;;;;;6218013;23;20149;-67
2022/02/15 03:43:04;;;;;;;4.80;2.92;;;7.50;99.90;;;;;;6217426;23;20141;-67
2022/02/15 03:43:10;;;;;;;4.70;2.90;;;7.60;99.90;;;;;;6217658;23;20615;-67
2022/02/15 03:45:36;;;;;;;5.20;2.78;;;7.60;99.90;;;;;;6218175;23;20160;-67
2022/02/15 03:48:02;;;;;;;5.82;2.60;;;7.60;99.90;;;;;;6217689;23;20149;-66
2022/02/15 03:50:27;;;;;;;8.02;3.08;;;7.60;99.90;;;;;;6217591;23;20153;-65
2022/02/15 03:52:53;;;;;;;4.28;3.08;;;7.60;99.90;;;;;;6217475;23;20230;-67
2022/02/15 03:55:19;;;;;;;5.40;2.78;;;7.60;99.90;;;;;;6217511;23;20150;-67
2022/02/15 03:57:45;;;;;;;3.58;3.03;;;7.50;99.90;;;;;;6218480;23;20155;-67
2022/02/15 04:00:11;;;;;;;4.97;2.92;;;7.50;99.90;;;;;;6217922;23;20429;-67
2022/02/15 04:02:37;;;;;;;4.40;3.17;;;7.40;99.90;;;;;;6217406;23;20148;-67
2022/02/15 04:05:02;;;;;;;4.75;3.00;;;7.30;99.90;;;;;;6217531;23;20584;-66
2022/02/15 04:07:28;;;;;;;4.15;2.80;;;7.30;99.90;;;;;;6218195;23;20156;-66
2022/02/15 04:09:53;;;;;;;4.35;2.92;;;7.20;99.90;;;;;;6218350;23;20168;-66
2022/02/15 04:12:19;;;;;;;5.30;3.33;;;7.20;99.90;;;;;;6217747;23;20515;-68
2022/02/15 04:14:44;;;;;;;4.68;2.72;;;7.20;99.90;;;;;;6219275;23;20137;-66
2022/02/15 04:17:10;;;;;;;3.83;3.10;;;7.20;99.90;;;;;;6220901;23;20479;-66
2022/02/15 04:19:35;;;;;;;5.15;2.90;;;7.20;99.90;;;;;;6221606;23;20145;-67
2022/02/15 04:22:01;;;;;;;3.67;3.00;;;7.20;99.90;;;;;;6221943;23;20141;-67
2022/02/15 04:24:26;;;;;;;6.03;3.28;;;7.20;99.90;;;;;;6223473;23;20148;-67
2022/02/15 04:26:52;;;;;;;3.97;2.83;;;7.20;99.90;;;;;;6223735;23;20141;-67
2022/02/15 04:29:18;;;;;;;6.00;3.20;;;7.20;99.90;;;;;;6223213;23;20141;-67
2022/02/15 04:31:43;;;;;;;5.82;3.10;;;7.20;99.90;;;;;;6225545;23;20156;-66
2022/02/15 04:34:09;;;;;;;5.55;3.33;;;7.30;99.90;;;;;;6225074;23;20169;-66
2022/02/15 04:36:35;;;;;;;6.32;3.40;;;7.30;99.90;;;;;;6226037;23;20144;-67
2022/02/15 04:39:00;;;;;;;5.70;2.97;;;7.30;99.90;;;;;;6225427;23;20220;-66
2022/02/15 04:41:26;;;;;;;4.25;3.10;;;7.40;99.90;;;;;;6224956;23;20141;-67
2022/02/15 04:43:51;;;;;;;8.40;3.22;;;7.40;99.90;;;;;;6220863;23;20145;-67
2022/02/15 04:46:18;;;;;;;4.68;3.13;;;7.50;99.90;;;;;;6220954;23;20145;-67
2022/02/15 04:48:43;;;;;;;5.07;2.95;;;7.60;99.90;;;;;;6220744;23;20425;-67
2022/02/15 04:51:10;;;;;;;6.32;3.47;;;7.60;99.90;;;;;;6220701;23;20151;-67
2022/02/15 04:53:35;;;;;;;6.93;3.42;;;7.60;99.90;;;;;;6220314;23;20613;-67
2022/02/15 04:56:02;;;;;;;6.00;3.42;;;7.50;99.90;;;;;;6220993;23;20199;-67
2022/02/15 04:58:29;;;;;;;7.03;3.13;;;7.50;99.90;;;;;;6221284;23;20220;-67
2022/02/15 05:00:54;;;;;;;5.88;3.58;;;7.50;99.90;;;;;;6221793;23;20156;-67
2022/02/15 05:03:20;;;;;;;4.03;3.47;;;7.50;99.90;;;;;;6221444;23;20141;-67
2022/02/15 05:05:46;;;;;;;5.55;3.45;;;7.50;99.90;;;;;;6220692;23;20149;-67
2022/02/15 05:08:11;;;;;;;5.13;3.38;;;7.60;99.90;;;;;;6220952;23;20149;-67
2022/02/15 05:10:38;;;;;;;6.57;3.55;;;7.60;99.90;;;;;;6218980;23;20151;-67
2022/02/15 05:13:08;;;;;;;7.72;3.97;;;7.60;99.90;;;;;;6219675;23;20247;-67
2022/02/15 05:15:34;;;;;;;4.95;3.50;;;7.70;99.90;;;;;;6219809;23;20145;-67
2022/02/15 05:18:02;;;;;;;5.07;3.63;;;7.70;99.90;;;;;;6219231;23;20141;-67
2022/02/15 05:20:28;;;;;;;5.00;3.55;;;7.70;99.90;;;;;;6219454;23;20152;-67
2022/02/15 05:22:53;;;;;;;6.80;4.15;;;7.70;99.90;;;;;;6219324;23;20148;-67
2022/02/15 05:25:19;;;;;;;6.25;3.92;;;7.70;99.90;;;;;;6219401;23;20152;-66
2022/02/15 05:27:44;;;;;;;7.88;3.60;;;7.70;99.90;;;;;;6222259;23;20552;-67
2022/02/15 05:30:11;;;;;;;5.90;3.67;;;7.70;99.90;;;;;;6221712;23;20202;-67
2022/02/15 05:32:38;;;;;;;10.00;4.88;;;7.70;99.90;;;;;;6220382;23;20212;-67
2022/02/15 05:35:05;;;;;;;7.55;3.67;;;7.70;99.90;;;;;;6221969;23;20145;-67
2022/02/15 05:37:30;;;;;;;7.97;4.05;;;7.70;99.90;;;;;;6222018;23;20234;-66
2022/02/15 05:39:56;;;;;;;7.70;4.47;;;7.70;99.90;;;;;;6222294;23;20153;-66
2022/02/15 05:42:21;;;;;;;6.82;4.13;;;7.80;99.90;;;;;;6220706;23;20145;-67
2022/02/15 05:44:47;;;;;;;6.57;3.92;;;7.80;99.90;;;;;;6221287;23;20153;-67
2022/02/15 05:47:12;;;;;;;6.03;4.10;;;7.70;99.90;;;;;;6219443;23;20159;-66
2022/02/15 05:50:49;;;;;;;7.38;4.45;;;7.70;99.90;;;;;;6219172;23;20151;-66
2022/02/15 05:52:23;;;;;;;6.38;3.90;;;7.70;99.90;;;;;;6219029;23;20183;-66
2022/02/15 05:54:49;;;;;;;7.18;4.50;;;7.70;99.90;;;;;;6221509;23;20145;-67
2022/02/15 05:57:15;;;;;;;6.45;4.40;;;7.70;99.90;;;;;;6221071;23;20145;-66
2022/02/15 05:59:41;;;;;;;6.05;4.35;;;7.70;99.90;;;;;;6220614;23;20145;-67
2022/02/15 06:02:07;;;;;;;8.55;4.50;;;7.70;99.90;;;;;;6218472;23;20398;-67
2022/02/15 06:04:32;;;;;;;8.00;4.55;;;7.70;99.90;;;;;;6217783;23;20203;-67
2022/02/15 06:06:58;;;;;;;6.50;4.60;;;7.70;99.90;;;;;;6217597;23;20156;-67
2022/02/15 06:09:23;;;;;;;4.88;4.00;;;7.70;99.90;;;;;;6219067;23;20151;-67
2022/02/15 06:11:49;;;;;;;6.68;4.47;;;7.70;99.90;;;;;;6221658;23;20172;-67
2022/02/15 06:14:14;;;;;;;6.85;4.40;;;7.70;99.90;;;;;;6223379;23;20165;-66
2022/02/15 06:16:40;;;;;;;6.90;4.05;;;7.70;99.90;;;;;;6223062;23;20198;-67
2022/02/15 06:19:05;;;;;;;6.47;4.03;;;7.60;99.90;;;;;;6224188;23;20199;-67
2022/02/15 06:21:31;;;;;;;5.00;3.58;;;7.70;99.90;;;;;;6221390;23;20137;-67
2022/02/15 06:23:57;;;;;;;4.45;3.97;;;7.70;99.90;;;;;;6223717;23;20148;-67
2022/02/15 06:26:23;;;;;;;7.95;4.20;;;7.70;99.90;;;;;;6221219;23;20137;-67
2022/02/15 06:28:48;;;;;;;6.70;4.05;;;7.70;99.90;;;;;;6222088;23;20145;-67
2022/02/15 06:31:14;;;;;;;7.13;4.10;;;7.70;99.90;;;;;;6219461;23;20187;-67
2022/02/15 06:33:40;;;;;;;4.38;3.63;;;7.70;99.90;;;;;;6219279;23;20565;-67
2022/02/15 06:36:06;;;;;;;5.72;3.50;;;7.70;99.90;;;;;;6219848;23;20497;-67
2022/02/15 06:38:31;;;;;;;4.40;3.10;;;7.60;99.90;;;;;;6219954;23;20152;-67
2022/02/15 06:40:57;;;;;;;4.82;3.45;;;7.70;99.90;;;;;;6220254;23;20137;-67
2022/02/15 06:43:22;;;;;;;5.15;3.83;;;7.60;99.90;;;;;;6222588;23;20145;-67
2022/02/15 06:45:48;;;;;;;6.45;3.70;;;7.60;99.90;;;;;;6222522;23;20141;-67
2022/02/15 06:48:13;;;;;;;5.07;3.22;;;7.60;99.90;;;;;;6222891;23;20145;-67
2022/02/15 06:50:39;;;;;;;5.60;3.40;;;7.60;99.90;;;;;;6221258;23;20149;-67
2022/02/15 06:53:04;;;;;;;6.65;3.72;;;7.60;99.90;;;;;;6218687;23;20175;-67
2022/02/15 06:55:30;;;;;;;5.75;3.17;;;7.60;99.90;;;;;;6218561;23;20195;-67
2022/02/15 06:57:56;;;;;;;5.10;3.25;;;7.60;99.90;;;;;;6219049;23;20148;-67
2022/02/15 07:00:21;;;;;;;4.35;3.15;;;7.60;99.90;;;;;;6218663;23;20232;-67
2022/02/15 07:02:47;;;;;;;4.10;3.05;;;7.70;99.90;;;;;;6218601;23;20155;-67
2022/02/15 07:05:12;;;;;;;7.00;3.40;;;7.60;99.90;;;;;;6218412;23;20155;-67
2022/02/15 07:07:38;;;;;;;6.88;3.00;;;7.60;99.90;;;;;;6219332;23;20149;-67
2022/02/15 07:10:05;;;;;;;4.32;2.92;;;7.60;99.90;;;;;;6219759;23;20149;-66
2022/02/15 07:12:31;;;;;;;3.60;3.15;;;7.60;99.90;;;;;;6222021;23;20183;-66
2022/02/15 07:14:57;;;;;;;5.15;3.40;;;7.70;99.90;;;;;;6218126;23;20141;-66
2022/02/15 07:17:24;;;;;;;3.28;2.75;;;7.70;99.90;;;;;;6218419;23;20152;-66
2022/02/15 07:19:50;;;;;;;4.30;2.75;;;7.70;99.90;;;;;;6219080;23;20191;-66
2022/02/15 07:22:16;;;;;;;3.95;2.80;;;7.60;99.90;;;;;;6219601;23;20157;-67
2022/02/15 07:24:41;;;;;;;4.03;2.63;;;7.60;99.90;;;;;;6218694;23;20141;-67
2022/02/15 07:27:07;;;;;;;3.90;2.80;;;7.70;99.90;;;;;;6218515;23;20475;-66
2022/02/15 07:29:33;;;;;;;3.95;2.97;;;7.70;99.90;;;;;;6218333;23;20153;-66
2022/02/15 07:31:58;;;;;;;3.78;2.55;;;7.70;99.90;;;;;;6217761;23;20164;-66
2022/02/15 07:34:24;;;;;;;3.58;2.92;;;7.60;99.90;;;;;;6218400;23;20204;-67
2022/02/15 07:36:51;;;;;;;4.72;2.67;;;7.60;99.90;;;;;;6217804;23;20137;-66
2022/02/15 07:39:16;;;;;;;5.13;3.00;;;7.60;99.90;;;;;;6218196;23;20145;-67
2022/02/15 07:41:42;;;;;;;4.47;2.95;;;7.50;99.90;;;;;;6218553;23;20424;-66
2022/02/15 07:44:07;;;;;;;4.00;3.08;;;7.60;99.90;;;;;;6219484;23;20144;-66
2022/02/15 07:46:33;;;;;;;4.00;2.75;;;7.60;99.90;;;;;;6221508;23;20502;-67
2022/02/15 07:48:59;;;;;;;4.38;2.80;;;7.60;99.90;;;;;;6219395;23;20152;-67
2022/02/15 07:51:24;;;;;;;4.03;2.80;;;7.60;99.90;;;;;;6219161;23;20144;-67
2022/02/15 07:53:50;;;;;;;5.20;3.10;;;7.60;99.90;;;;;;6221978;23;20234;-67
2022/02/15 07:56:15;;;;;;;5.05;2.88;;;7.60;99.90;;;;;;6217764;23;20449;-67
2022/02/15 07:58:41;;;;;;;3.47;2.90;;;7.70;99.90;;;;;;6217104;23;20149;-67
2022/02/15 08:01:07;;;;;;;4.60;2.55;;;7.70;99.90;;;;;;6217225;23;20141;-67
2022/02/15 08:03:32;;;;;;;3.63;2.72;;;7.80;99.90;;;;;;6217239;23;20156;-67
2022/02/15 08:05:58;;;;;;;4.38;2.53;;;7.80;99.90;;;;;;6216907;23;20641;-67
2022/02/15 08:08:24;;;;;;;4.32;2.88;;;7.90;99.90;;;;;;6217276;23;20147;-67
2022/02/15 08:10:49;;;;;;;3.45;2.78;;;7.90;99.90;;;;;;6217848;23;20148;-67
2022/02/15 08:13:18;;;;;;;5.13;3.20;;;7.90;99.90;;;;;;6217101;23;20231;-67
2022/02/15 08:15:46;;;;;;;4.18;2.58;;;7.90;99.90;;;;;;6217610;23;20137;-67
2022/02/15 08:18:11;;;;;;;3.72;3.10;;;7.90;99.90;;;;;;6217452;23;20141;-67
2022/02/15 08:20:38;;;;;;;2.90;2.35;;;8.00;99.90;;;;;;6217621;23;20152;-67
2022/02/15 08:23:04;;;;;;;5.15;2.90;;;8.00;99.90;;;;;;6217328;23;20145;-67
2022/02/15 08:25:29;;;;;;;4.30;2.58;;;7.90;99.90;;;;;;6219368;23;20228;-66
2022/02/15 08:27:55;;;;;;;4.32;2.88;;;8.00;99.90;;;;;;6218658;23;20155;-67
2022/02/15 08:30:20;;;;;;;5.70;3.00;;;8.00;99.90;;;;;;6217994;23;20236;-66
2022/02/15 08:32:46;;;;;;;3.90;3.20;;;8.10;99.90;;;;;;6217901;23;20180;-67
2022/02/15 08:35:14;;;;;;;4.53;2.97;;;8.20;99.90;;;;;;6221294;23;20152;-67
2022/02/15 08:37:39;;;;;;;4.50;3.13;;;8.20;99.90;;;;;;6223910;23;20141;-66
2022/02/15 08:40:06;;;;;;;5.45;3.35;;;8.30;99.90;;;;;;6224390;23;20141;-67
2022/02/15 08:42:31;;;;;;;5.50;3.50;;;8.30;99.90;;;;;;6221828;23;20211;-66
2022/02/15 08:44:57;;;;;;;6.05;3.55;;;8.30;99.90;;;;;;6218987;23;20141;-67
2022/02/15 08:47:22;;;;;;;6.32;4.15;;;8.30;99.90;;;;;;6218878;23;20149;-67
2022/02/15 08:49:51;;;;;;;4.53;3.60;;;8.30;99.90;;;;;;6219388;23;20202;-67
2022/02/15 08:52:19;;;;;;;5.38;3.63;;;8.40;99.90;;;;;;6222319;23;20257;-67
2022/02/15 08:54:44;;;;;;;6.25;3.70;;;8.60;99.90;;;;;;6223370;23;20168;-67
2022/02/15 08:57:11;;;;;;;4.60;3.50;;;8.60;99.90;;;;;;6222045;23;20145;-67
2022/02/15 08:59:36;;;;;;;5.53;3.53;;;8.70;99.90;;;;;;6221742;23;20167;-67
2022/02/15 09:02:03;;;;;;;4.90;3.53;;;8.80;99.90;;;;;;6221114;23;20184;-66
2022/02/15 09:04:28;;;;;;;4.70;3.15;;;8.90;99.90;;;;;;6220426;23;20156;-67
2022/02/15 09:06:54;;;;;;;4.65;3.25;;;8.90;99.90;;;;;;6219053;23;20145;-66
2022/02/15 09:09:20;;;;;;;5.53;3.10;;;8.90;99.90;;;;;;6220280;23;20203;-68
2022/02/15 09:11:45;;;;;;;4.25;3.33;;;8.70;99.90;;;;;;6221948;23;20579;-68
2022/02/15 09:14:11;;;;;;;6.80;3.63;;;8.70;99.90;;;;;;6220465;23;20173;-67
2022/02/15 09:16:37;;;;;;;5.05;3.13;;;8.60;99.90;;;;;;6222740;23;20177;-66
2022/02/15 09:19:02;;;;;;;4.57;3.60;;;8.60;99.90;;;;;;6223885;23;20155;-67
2022/02/15 09:21:28;;;;;;;5.10;3.25;;;8.60;99.90;;;;;;6223358;23;20141;-67
2022/02/15 09:23:53;;;;;;;3.78;3.17;;;8.50;99.90;;;;;;6221442;23;20642;-67
2022/02/15 09:26:19;;;;;;;4.10;3.13;;;8.50;99.90;;;;;;6221499;23;20141;-67
2022/02/15 09:28:44;;;;;;;6.07;3.42;;;8.50;99.90;;;;;;6221948;23;20144;-66
2022/02/15 09:31:10;;;;;;;4.55;2.67;;;8.60;99.90;;;;;;6221518;23;20240;-66
2022/02/15 09:33:35;;;;;;;4.95;3.38;;;8.60;99.90;;;;;;6222143;23;20202;-66
2022/02/15 09:36:01;;;;;;;4.35;2.78;;;8.60;99.90;;;;;;6224474;23;20141;-67
2022/02/15 09:38:26;;;;;;;4.88;3.17;;;8.70;99.90;;;;;;6221950;23;20455;-67
2022/02/15 09:40:52;;;;;;;4.40;2.80;;;8.70;99.90;;;;;;6222383;23;20152;-66
2022/02/15 09:43:17;;;;;;;5.55;3.03;;;8.70;99.90;;;;;;6224150;23;20156;-66
2022/02/15 09:45:47;;;;;;;4.40;3.17;;;8.60;99.90;;;;;;6222302;23;20447;-66
2022/02/15 09:48:14;;;;;;;5.10;2.78;;;8.70;99.90;;;;;;6224191;23;20145;-67
2022/02/15 09:50:40;;;;;;;3.13;2.47;;;8.70;99.90;;;;;;6222871;23;20144;-66
2022/02/15 09:53:05;;;;;;;5.82;2.58;;;8.80;99.90;;;;;;6221963;23;20218;-66
2022/02/15 09:55:31;;;;;;;7.47;2.80;;;8.80;99.90;;;;;;6220645;23;20145;-66
2022/02/15 09:57:56;;;;;;;3.70;2.55;;;8.90;99.90;;;;;;6219993;23;20454;-66
2022/02/15 10:00:23;;;;;;;2.92;2.28;;;8.80;99.90;;;;;;6220790;23;20141;-66
2022/02/15 10:02:48;;;;;;;3.50;2.40;;;8.80;99.90;;;;;;6220440;23;20489;-66
2022/02/15 10:05:16;;;;;;;3.67;2.50;;;8.60;99.90;;;;;;6219357;23;20248;-66
2022/02/15 10:07:53;;;;;;;4.50;2.83;;;8.40;99.90;;;;;;6219078;23;20438;-67
2022/02/15 10:10:33;;;;;;;4.18;2.83;;;8.20;99.90;;;;;;6221629;23;20230;-68
2022/02/15 10:13:00;;;;;;;5.82;3.20;;;8.10;99.90;;;;;;6221604;23;20188;-66
2022/02/15 10:15:36;;;;;;;4.40;2.50;;;8.00;99.90;;;;;;6219359;23;20441;-66
2022/02/15 10:18:13;;;;;;;3.92;2.45;;;8.10;99.90;;;;;;6217512;23;20125;-66
2022/02/15 10:20:42;;;;;;;4.35;2.70;;;8.20;99.90;;;;;;6217068;23;20125;-66
2022/02/15 10:23:18;;;;;;;3.83;2.65;;;8.40;99.90;;;;;;6216849;23;20184;-66
2022/02/15 10:25:44;;;;;;;3.72;2.55;;;8.40;99.90;;;;;;6217843;23;20149;-66
2022/02/15 10:28:20;;;;;;;5.70;3.15;;;8.50;99.90;;;;;;6217365;23;20214;-66
2022/02/15 10:30:49;;;;;;;4.25;2.80;;;8.50;99.90;;;;;;6217285;23;20247;-66
2022/02/15 10:33:16;;;;;;;4.10;2.85;;;8.50;99.90;;;;;;6216920;23;20172;-66
2022/02/15 10:36:07;;;;;;;5.35;3.88;;;8.60;99.90;;;;;;6216813;23;20140;-66
2022/02/15 10:38:39;;;;;;;5.43;3.30;;;8.60;99.90;;;;;;6217207;23;20137;-66
2022/02/15 10:41:06;;;;;;;4.65;3.50;;;8.40;99.90;;;;;;6215734;23;20174;-66
2022/02/15 10:43:48;;;;;;;4.80;3.67;;;8.40;99.90;;;;;;6216605;23;20145;-67
2022/02/15 10:46:16;;;;;;;5.05;3.40;;;8.30;99.90;;;;;;6215454;23;20152;-67
2022/02/15 10:48:41;;;;;;;6.18;3.70;;;8.20;99.90;;;;;;6216816;23;20145;-67
2022/02/15 10:51:08;;;;;;;4.78;3.55;;;8.10;99.90;;;;;;6216607;23;20172;-67
2022/02/15 10:53:34;;;;;;;5.95;3.40;;;8.00;99.90;;;;;;6215391;23;20175;-67
2022/02/15 10:56:00;;;;;;;5.78;4.25;;;8.10;99.90;;;;;;6219564;23;20141;-67
2022/02/15 10:58:26;;;;;;;7.53;4.15;;;8.20;99.90;;;;;;6218809;23;20431;-67
2022/02/15 11:00:52;;;;;;;5.43;3.88;;;8.20;99.90;;;;;;6216563;23;20511;-67
2022/02/15 11:03:23;;;;;;;6.28;4.45;;;8.30;99.90;;;;;;6215358;23;20180;-67
2022/02/15 11:05:49;;;;;;;5.32;4.13;;;8.30;99.90;;;;;;6215074;23;20140;-66
2022/02/15 11:08:16;;;;;;;8.73;5.18;;;8.30;99.90;;;;;;6216232;23;20553;-66
2022/02/15 11:10:50;;;;;;;6.10;4.15;;;8.40;99.90;;;;;;6215081;23;20561;-66
2022/02/15 11:13:16;;;;;;;8.63;4.32;;;8.40;99.90;;;;;;6216473;23;20176;-67
2022/02/15 11:15:42;;;;;;;7.28;4.10;;;8.40;99.90;;;;;;6215098;23;20545;-67
2022/02/15 11:18:19;;;;;;;5.88;3.53;;;8.50;99.90;;;;;;6216572;23;20149;-67
2022/02/15 11:20:51;;;;;;;5.25;3.25;;;8.60;99.90;;;;;;6216321;23;20136;-67
2022/02/15 11:23:22;;;;;;;4.53;3.13;;;8.70;99.90;;;;;;6216389;23;20134;-67
2022/02/15 11:25:49;;;;;;;4.20;3.00;;;8.80;99.90;;;;;;6221183;23;20169;-67
2022/02/15 11:28:17;;;;;;;4.93;2.80;;;8.80;99.90;;;;;;6227626;23;20145;-66
2022/02/15 11:30:52;;;;;;;3.78;2.40;;;8.80;99.90;;;;;;6216208;23;20220;-66
2022/02/15 11:33:29;;;;;;;3.97;2.78;;;8.80;99.90;;;;;;6216615;23;20544;-66
2022/02/15 11:36:05;;;;;;;7.18;3.05;;;8.90;99.90;;;;;;6216732;23;20475;-66
2022/02/15 11:38:31;;;;;;;5.63;3.50;;;8.90;99.90;;;;;;6215935;23;20167;-66
2022/02/15 11:40:59;;;;;;;5.32;3.28;;;9.00;99.90;;;;;;6216596;23;20140;-66
2022/02/15 11:43:24;;;;;;;5.65;3.10;;;9.00;99.90;;;;;;6214920;23;20149;-66
2022/02/15 11:45:50;;;;;;;4.32;3.40;;;9.00;99.90;;;;;;6216136;23;20638;-66
2022/02/15 11:48:16;;;;;;;5.85;3.55;;;8.90;99.90;;;;;;6215076;23;20145;-66
2022/02/15 11:50:50;;;;;;;6.50;3.90;;;8.80;99.90;;;;;;6216526;23;20169;-66
2022/02/15 11:53:19;;;;;;;4.35;3.58;;;8.80;99.90;;;;;;6214777;23;20173;-67
2022/02/15 11:55:46;;;;;;;6.13;4.13;;;8.60;99.90;;;;;;6215963;23;20141;-68
2022/02/15 11:58:12;;;;;;;6.35;3.70;;;8.50;99.90;;;;;;6215703;23;20144;-67
2022/02/15 12:00:39;;;;;;;7.85;4.95;;;8.40;99.90;;;;;;6189437;23;20156;-66
2022/02/15 12:03:06;;;;;;;6.53;4.10;;;8.30;99.90;;;;;;6215789;23;20145;-66
2022/02/15 12:05:36;;;;;;;5.32;3.45;;;8.20;99.90;;;;;;6215936;23;20439;-66
2022/02/15 12:08:02;;;;;;;3.92;2.58;;;8.10;99.90;;;;;;6216159;23;20227;-67
2022/02/15 12:10:38;;;;;;;5.18;2.70;;;8.00;99.90;;;;;;6215222;23;20561;-67
2022/02/15 12:13:12;;;;;;;2.75;2.40;;;8.00;99.90;;;;;;6216243;23;20171;-67
2022/02/15 12:15:37;;;;;;;1.75;1.52;;;8.10;99.90;;;;;;6214884;23;20424;-67
2022/02/15 12:18:03;;;;;;;4.10;2.15;;;8.30;99.90;;;;;;6216465;23;20140;-67
2022/02/15 12:20:29;;;;;;;4.20;2.30;;;8.30;99.90;;;;;;6215062;23;20680;-67
2022/02/15 12:22:55;;;;;;;3.33;2.58;;;8.40;99.90;;;;;;6216383;23;20152;-67
2022/02/15 12:25:21;;;;;;;3.65;3.00;;;8.50;99.90;;;;;;6216061;23;20475;-67
2022/02/15 12:27:48;;;;;;;4.35;2.70;;;8.60;99.90;;;;;;6215694;23;20220;-67
2022/02/15 12:30:15;;;;;;;4.55;3.42;;;8.80;99.90;;;;;;6216159;23;20176;-67
2022/02/15 12:32:44;;;;;;;5.45;3.50;;;8.90;99.90;;;;;;6215822;23;20176;-67
2022/02/15 12:35:11;;;;;;;5.10;3.50;;;9.10;99.90;;;;;;6215865;23;20220;-67
2022/02/15 12:37:36;;;;;;;6.22;3.80;;;9.10;99.90;;;;;;6216205;23;20146;-67
2022/02/15 12:40:04;;;;;;;4.55;3.38;;;9.20;99.90;;;;;;6215663;23;20176;-67
2022/02/15 12:42:30;;;;;;;5.07;4.05;;;9.20;99.90;;;;;;6215955;23;20158;-67
2022/02/15 12:45:03;;;;;;;7.18;4.25;;;9.10;99.90;;;;;;6215479;23;20180;-67
2022/02/15 12:47:30;;;;;;;7.05;4.10;;;9.00;99.90;;;;;;6214943;23;20478;-67
2022/02/15 12:49:56;;;;;;;5.43;4.13;;;9.00;99.90;;;;;;6214794;23;20207;-67
2022/02/15 12:52:24;;;;;;;6.57;4.32;;;9.00;99.90;;;;;;6216475;23;20137;-67
2022/02/15 12:54:54;;;;;;;6.22;4.43;;;9.00;99.90;;;;;;6217755;23;20137;-66
2022/02/15 12:57:21;;;;;;;5.65;3.60;;;8.90;99.90;;;;;;6217699;23;20251;-66